Delta Mallard — WDF8814 — position and weather

sailwx.info

Track history (hours):
 
Tides and Currents Weather Stations Pressure Air Temp Water Temp Dewpoint Dewpoint Depression Visibility Wind Speed Wind Dir Waves Ship Positions

Delta Mallard

Owner: Crosby Marine Transportation, Golden Meadow, LA. More information available from US FCC via Universal Licensing System and Coast Guard Vessel Documentation Center.

Last reported at 2017-Dec-10 15:20 UTC. Time now 2017-Dec-12 06:13 UTC.
Position N 29°58' W 093°52'.

Length 16 m; draft 3.5 m.

Type: Towing. MMSI: 367498860.

Date/timePositionNaut miles runAvg speedWind from/ knotsBaromVisibWave heightAir tempDewpointWater temp
2017-Dec-10 15:20N 29°58' W 093°52'8 0.2
2017-Dec-09 06:30N 30°02' W 093°44'7 6.1
2017-Dec-09 05:20N 30°04' W 093°36'3 6.6
2017-Dec-09 04:51N 30°04' W 093°32'2 6.5
2017-Dec-09 04:30N 30°04' W 093°30'3 6.8
2017-Dec-09 04:00N 30°04' W 093°26'3 6.9
2017-Dec-09 03:30N 30°04' W 093°22'3 5.0
2017-Dec-09 03:00N 30°05' W 093°20'3 6.5
2017-Dec-09 02:30N 30°09' W 093°20'3 5.9
2017-Dec-09 02:00N 30°11' W 093°18'1 2.6
2017-Dec-09 01:30N 30°12' W 093°18'1 1.2
2017-Dec-09 01:00N 30°13' W 093°19'1 1.7
2017-Dec-09 00:30N 30°12' W 093°19'0 0.2
2017-Dec-09 00:00N 30°12' W 093°19'0 0.0
2017-Dec-08 23:28N 30°12' W 093°19'0 0.0
2017-Dec-08 22:58N 30°12' W 093°19'0 0.0
2017-Dec-08 22:28N 30°12' W 093°19'0 0.0
2017-Dec-08 21:58N 30°12' W 093°19'0 0.0
2017-Dec-08 21:28N 30°12' W 093°19'0 0.0
2017-Dec-08 20:58N 30°12' W 093°19'0 0.0
2017-Dec-08 20:28N 30°12' W 093°19'0 0.0
2017-Dec-08 19:58N 30°12' W 093°19'0 0.0
2017-Dec-08 19:28N 30°12' W 093°19'0 0.0
2017-Dec-08 18:58N 30°12' W 093°19'0 0.0
2017-Dec-08 18:28N 30°12' W 093°19'0 0.0
2017-Dec-08 12:28N 30°12' W 093°19'0 0.0
2017-Dec-08 10:37N 30°12' W 093°19'0 0.0
2017-Dec-08 10:28N 30°12' W 093°19'0 0.0
2017-Dec-08 09:58N 30°12' W 093°19'0 0.0
2017-Dec-08 09:28N 30°12' W 093°19'0 0.0
2017-Dec-08 08:58N 30°12' W 093°19'0 0.0
2017-Dec-08 08:28N 30°12' W 093°19'0 0.0
2017-Dec-08 07:58N 30°12' W 093°19'0 0.0
2017-Dec-08 07:28N 30°12' W 093°19'0 0.0
2017-Dec-08 06:58N 30°12' W 093°19'0 0.0
2017-Dec-08 06:28N 30°12' W 093°19'0 0.0
2017-Dec-08 05:58N 30°12' W 093°19'0 0.0
2017-Dec-08 05:28N 30°12' W 093°19'0 0.0
2017-Dec-08 04:58N 30°12' W 093°19'0 0.0
2017-Dec-08 04:28N 30°12' W 093°19'0 0.0
2017-Dec-08 03:58N 30°12' W 093°19'0 0.0
2017-Dec-08 03:28N 30°12' W 093°19'0 0.0
2017-Dec-08 02:58N 30°12' W 093°19'0 0.0
2017-Dec-08 02:28N 30°12' W 093°19'0 0.0
2017-Dec-08 01:58N 30°12' W 093°19'0 0.0
2017-Dec-08 01:28N 30°12' W 093°19'0 0.0
2017-Dec-08 00:58N 30°12' W 093°19'0 0.1
2017-Dec-08 00:28N 30°12' W 093°19'0 0.0
2017-Dec-08 00:01N 30°12' W 093°19'0 0.0
2017-Dec-07 23:25N 30°12' W 093°19'0 0.0
2017-Dec-07 22:58N 30°12' W 093°19'0 0.0
2017-Dec-07 22:28N 30°12' W 093°19'0 0.0
2017-Dec-07 22:01N 30°12' W 093°19'0 0.0
2017-Dec-07 21:28N 30°12' W 093°19'0 0.0
2017-Dec-07 21:01N 30°12' W 093°19'0 0.0
2017-Dec-07 20:28N 30°12' W 093°19'0 0.0
2017-Dec-07 19:58N 30°12' W 093°19'0 0.0
2017-Dec-07 19:31N 30°12' W 093°19'0 0.0
2017-Dec-07 19:00N 30°12' W 093°19'1 1.1
2017-Dec-07 18:30N 30°13' W 093°19'1 1.8
2017-Dec-07 18:00N 30°12' W 093°18'2 3.1
2017-Dec-07 17:30N 30°11' W 093°19'3 5.5
2017-Dec-07 17:00N 30°08' W 093°20'3 5.9
2017-Dec-07 16:30N 30°06' W 093°20'2 4.4
2017-Dec-07 16:00N 30°04' W 093°21'2 4.9
2017-Dec-07 15:30N 30°04' W 093°24'3 6.0
2017-Dec-07 15:00N 30°04' W 093°27'3 5.9
2017-Dec-07 14:30N 30°04' W 093°31'3 6.0
2017-Dec-07 14:00N 30°04' W 093°34'3 6.1
2017-Dec-07 13:30N 30°03' W 093°38'5 6.2
2017-Dec-07 12:45N 30°03' W 093°43'3 5.7
2017-Dec-07 12:12N 30°01' W 093°45'1 6.5
2017-Dec-07 12:00N 29°60' W 093°47'  
2017-Dec-03 10:51N 29°58' W 093°52'8 0.3
2017-Dec-02 05:58N 30°02' W 093°44'6 6.7
2017-Dec-02 05:01N 30°04' W 093°37'0 1.8
2017-Dec-02 05:00N 30°03' W 093°37'5 3.9
2017-Dec-02 03:50N 30°04' W 093°32'2 6.5
2017-Dec-02 03:30N 30°04' W 093°29'3 6.5
2017-Dec-02 03:01N 30°04' W 093°26'3 5.9
2017-Dec-02 02:31N 30°04' W 093°22'2 3.3
2017-Dec-02 02:01N 30°04' W 093°20'3 5.9
2017-Dec-02 01:31N 30°07' W 093°20'3 6.4
2017-Dec-02 01:01N 30°10' W 093°19'2 4.4
2017-Dec-02 00:30N 30°12' W 093°18'1 2.1
2017-Dec-02 00:00N 30°12' W 093°19'0 0.6
2017-Dec-01 23:29N 30°12' W 093°19'0 0.0
2017-Dec-01 22:59N 30°12' W 093°19'0 0.0
2017-Dec-01 22:29N 30°12' W 093°19'0 0.0
2017-Dec-01 21:59N 30°12' W 093°19'0 0.0
2017-Dec-01 21:29N 30°12' W 093°19'0 0.0
2017-Dec-01 20:59N 30°12' W 093°19'0 0.0
2017-Dec-01 20:29N 30°12' W 093°19'0 0.0
2017-Dec-01 19:59N 30°12' W 093°19'0 0.0
2017-Dec-01 19:29N 30°12' W 093°19'0 0.0
2017-Dec-01 18:59N 30°12' W 093°19'0 0.0
2017-Dec-01 18:29N 30°12' W 093°19'0 0.0
2017-Dec-01 17:59N 30°12' W 093°19'0 0.0
2017-Dec-01 17:29N 30°12' W 093°19'0 0.0
2017-Dec-01 16:59N 30°12' W 093°19'0 0.0
2017-Dec-01 16:29N 30°12' W 093°19'0 0.0
2017-Dec-01 15:59N 30°12' W 093°19'0 0.0
2017-Dec-01 15:29N 30°12' W 093°19'0 0.0
2017-Dec-01 14:59N 30°12' W 093°19'0 0.0
2017-Dec-01 14:29N 30°12' W 093°19'0 0.0
2017-Dec-01 13:59N 30°12' W 093°19'0 0.0
2017-Dec-01 13:29N 30°12' W 093°19'0 0.0
2017-Dec-01 12:59N 30°12' W 093°19'0 0.0
2017-Dec-01 12:29N 30°12' W 093°19'0 0.0
2017-Dec-01 11:59N 30°12' W 093°19'0 0.0
2017-Dec-01 11:29N 30°12' W 093°19'0 0.0
2017-Dec-01 10:56N 30°12' W 093°19'0 0.0
2017-Dec-01 10:29N 30°12' W 093°19'0 0.0
2017-Dec-01 09:59N 30°12' W 093°19'0 0.0
2017-Dec-01 09:29N 30°12' W 093°19'0 0.0
2017-Dec-01 08:59N 30°12' W 093°19'0 0.0
2017-Dec-01 08:29N 30°12' W 093°19'0 0.0
2017-Dec-01 07:59N 30°12' W 093°19'0 0.0
2017-Dec-01 07:29N 30°12' W 093°19'0 0.0
2017-Dec-01 06:59N 30°12' W 093°19'0 0.0
2017-Dec-01 06:29N 30°12' W 093°19'0 0.0
2017-Dec-01 05:59N 30°12' W 093°19'0 0.0
2017-Dec-01 05:29N 30°12' W 093°19'0 0.0
2017-Dec-01 04:59N 30°12' W 093°19'0 0.0
2017-Dec-01 04:29N 30°12' W 093°19'0 0.0
2017-Dec-01 03:59N 30°12' W 093°19'0 0.0
2017-Dec-01 03:29N 30°12' W 093°19'0 0.0
2017-Dec-01 02:59N 30°12' W 093°19'0 0.0
2017-Dec-01 02:30N 30°12' W 093°19'0 0.0
2017-Dec-01 02:00N 30°12' W 093°19'0 0.0
2017-Dec-01 01:30N 30°12' W 093°19'0 0.0
2017-Dec-01 01:00N 30°12' W 093°19'0 0.0
2017-Dec-01 00:30N 30°12' W 093°19'0 0.1
2017-Dec-01 00:00N 30°12' W 093°19'0 0.0
2017-Nov-30 23:30N 30°12' W 093°19'1 1.5
2017-Nov-30 23:00N 30°13' W 093°19'1 2.6
2017-Nov-30 22:30N 30°12' W 093°18'2 3.4
2017-Nov-30 22:00N 30°11' W 093°19'3 6.1
2017-Nov-30 21:30N 30°08' W 093°20'3 6.0
2017-Nov-30 21:00N 30°05' W 093°20'2 3.9
2017-Nov-30 20:30N 30°04' W 093°22'3 5.6
2017-Nov-30 20:00N 30°04' W 093°25'3 5.8
2017-Nov-30 19:30N 30°04' W 093°28'3 5.8
2017-Nov-30 19:00N 30°04' W 093°32'3 5.2
2017-Nov-30 18:30N 30°04' W 093°35'3 5.5
2017-Nov-30 17:58N 30°04' W 093°38'  
Track history (hours):
 
Tides and Currents Weather Stations Pressure Air Temp Water Temp Dewpoint Dewpoint Depression Visibility Wind Speed Wind Dir Waves Ship Positions

Delta Mallard

Owner: Crosby Marine Transportation, Golden Meadow, LA. More information available from US FCC via Universal Licensing System and Coast Guard Vessel Documentation Center.

Last reported at 2017-Dec-10 15:20 UTC. Time now 2017-Dec-12 06:13 UTC.
Position N 29°58' W 093°52'.

Length 16 m; draft 3.5 m.

Type: Towing. MMSI: 367498860.

Date/timePositionNaut miles runAvg speedWind from/ knotsBaromVisibWave heightAir tempDewpointWater temp
2017-Dec-10 15:20N 29°58' W 093°52'8 0.2
2017-Dec-09 06:30N 30°02' W 093°44'7 6.1
2017-Dec-09 05:20N 30°04' W 093°36'3 6.6
2017-Dec-09 04:51N 30°04' W 093°32'2 6.5
2017-Dec-09 04:30N 30°04' W 093°30'3 6.8
2017-Dec-09 04:00N 30°04' W 093°26'3 6.9
2017-Dec-09 03:30N 30°04' W 093°22'3 5.0
2017-Dec-09 03:00N 30°05' W 093°20'3 6.5
2017-Dec-09 02:30N 30°09' W 093°20'3 5.9
2017-Dec-09 02:00N 30°11' W 093°18'1 2.6
2017-Dec-09 01:30N 30°12' W 093°18'1 1.2
2017-Dec-09 01:00N 30°13' W 093°19'1 1.7
2017-Dec-09 00:30N 30°12' W 093°19'0 0.2
2017-Dec-09 00:00N 30°12' W 093°19'0 0.0
2017-Dec-08 23:28N 30°12' W 093°19'0 0.0
2017-Dec-08 22:58N 30°12' W 093°19'0 0.0
2017-Dec-08 22:28N 30°12' W 093°19'0 0.0
2017-Dec-08 21:58N 30°12' W 093°19'0 0.0
2017-Dec-08 21:28N 30°12' W 093°19'0 0.0
2017-Dec-08 20:58N 30°12' W 093°19'0 0.0
2017-Dec-08 20:28N 30°12' W 093°19'0 0.0
2017-Dec-08 19:58N 30°12' W 093°19'0 0.0
2017-Dec-08 19:28N 30°12' W 093°19'0 0.0
2017-Dec-08 18:58N 30°12' W 093°19'0 0.0
2017-Dec-08 18:28N 30°12' W 093°19'0 0.0
2017-Dec-08 12:28N 30°12' W 093°19'0 0.0
2017-Dec-08 10:37N 30°12' W 093°19'0 0.0
2017-Dec-08 10:28N 30°12' W 093°19'0 0.0
2017-Dec-08 09:58N 30°12' W 093°19'0 0.0
2017-Dec-08 09:28N 30°12' W 093°19'0 0.0
2017-Dec-08 08:58N 30°12' W 093°19'0 0.0
2017-Dec-08 08:28N 30°12' W 093°19'0 0.0
2017-Dec-08 07:58N 30°12' W 093°19'0 0.0
2017-Dec-08 07:28N 30°12' W 093°19'0 0.0
2017-Dec-08 06:58N 30°12' W 093°19'0 0.0
2017-Dec-08 06:28N 30°12' W 093°19'0 0.0
2017-Dec-08 05:58N 30°12' W 093°19'0 0.0
2017-Dec-08 05:28N 30°12' W 093°19'0 0.0
2017-Dec-08 04:58N 30°12' W 093°19'0 0.0
2017-Dec-08 04:28N 30°12' W 093°19'0 0.0
2017-Dec-08 03:58N 30°12' W 093°19'0 0.0
2017-Dec-08 03:28N 30°12' W 093°19'0 0.0
2017-Dec-08 02:58N 30°12' W 093°19'0 0.0
2017-Dec-08 02:28N 30°12' W 093°19'0 0.0
2017-Dec-08 01:58N 30°12' W 093°19'0 0.0
2017-Dec-08 01:28N 30°12' W 093°19'0 0.0
2017-Dec-08 00:58N 30°12' W 093°19'0 0.1
2017-Dec-08 00:28N 30°12' W 093°19'0 0.0
2017-Dec-08 00:01N 30°12' W 093°19'0 0.0
2017-Dec-07 23:25N 30°12' W 093°19'0 0.0
2017-Dec-07 22:58N 30°12' W 093°19'0 0.0
2017-Dec-07 22:28N 30°12' W 093°19'0 0.0
2017-Dec-07 22:01N 30°12' W 093°19'0 0.0
2017-Dec-07 21:28N 30°12' W 093°19'0 0.0
2017-Dec-07 21:01N 30°12' W 093°19'0 0.0
2017-Dec-07 20:28N 30°12' W 093°19'0 0.0
2017-Dec-07 19:58N 30°12' W 093°19'0 0.0
2017-Dec-07 19:31N 30°12' W 093°19'0 0.0
2017-Dec-07 19:00N 30°12' W 093°19'1 1.1
2017-Dec-07 18:30N 30°13' W 093°19'1 1.8
2017-Dec-07 18:00N 30°12' W 093°18'2 3.1
2017-Dec-07 17:30N 30°11' W 093°19'3 5.5
2017-Dec-07 17:00N 30°08' W 093°20'3 5.9
2017-Dec-07 16:30N 30°06' W 093°20'2 4.4
2017-Dec-07 16:00N 30°04' W 093°21'2 4.9
2017-Dec-07 15:30N 30°04' W 093°24'3 6.0
2017-Dec-07 15:00N 30°04' W 093°27'3 5.9
2017-Dec-07 14:30N 30°04' W 093°31'3 6.0
2017-Dec-07 14:00N 30°04' W 093°34'3 6.1
2017-Dec-07 13:30N 30°03' W 093°38'5 6.2
2017-Dec-07 12:45N 30°03' W 093°43'3 5.7
2017-Dec-07 12:12N 30°01' W 093°45'1 6.5
2017-Dec-07 12:00N 29°60' W 093°47'  
2017-Dec-03 10:51N 29°58' W 093°52'8 0.3
2017-Dec-02 05:58N 30°02' W 093°44'6 6.7
2017-Dec-02 05:01N 30°04' W 093°37'0 1.8
2017-Dec-02 05:00N 30°03' W 093°37'5 3.9
2017-Dec-02 03:50N 30°04' W 093°32'2 6.5
2017-Dec-02 03:30N 30°04' W 093°29'3 6.5
2017-Dec-02 03:01N 30°04' W 093°26'3 5.9
2017-Dec-02 02:31N 30°04' W 093°22'2 3.3
2017-Dec-02 02:01N 30°04' W 093°20'3 5.9
2017-Dec-02 01:31N 30°07' W 093°20'3 6.4
2017-Dec-02 01:01N 30°10' W 093°19'2 4.4
2017-Dec-02 00:30N 30°12' W 093°18'1 2.1
2017-Dec-02 00:00N 30°12' W 093°19'0 0.6
2017-Dec-01 23:29N 30°12' W 093°19'0 0.0
2017-Dec-01 22:59N 30°12' W 093°19'0 0.0
2017-Dec-01 22:29N 30°12' W 093°19'0 0.0
2017-Dec-01 21:59N 30°12' W 093°19'0 0.0
2017-Dec-01 21:29N 30°12' W 093°19'0 0.0
2017-Dec-01 20:59N 30°12' W 093°19'0 0.0
2017-Dec-01 20:29N 30°12' W 093°19'0 0.0
2017-Dec-01 19:59N 30°12' W 093°19'0 0.0
2017-Dec-01 19:29N 30°12' W 093°19'0 0.0
2017-Dec-01 18:59N 30°12' W 093°19'0 0.0
2017-Dec-01 18:29N 30°12' W 093°19'0 0.0
2017-Dec-01 17:59N 30°12' W 093°19'0 0.0
2017-Dec-01 17:29N 30°12' W 093°19'0 0.0
2017-Dec-01 16:59N 30°12' W 093°19'0 0.0
2017-Dec-01 16:29N 30°12' W 093°19'0 0.0
2017-Dec-01 15:59N 30°12' W 093°19'0 0.0
2017-Dec-01 15:29N 30°12' W 093°19'0 0.0
2017-Dec-01 14:59N 30°12' W 093°19'0 0.0
2017-Dec-01 14:29N 30°12' W 093°19'0 0.0
2017-Dec-01 13:59N 30°12' W 093°19'0 0.0
2017-Dec-01 13:29N 30°12' W 093°19'0 0.0
2017-Dec-01 12:59N 30°12' W 093°19'0 0.0
2017-Dec-01 12:29N 30°12' W 093°19'0 0.0
2017-Dec-01 11:59N 30°12' W 093°19'0 0.0
2017-Dec-01 11:29N 30°12' W 093°19'0 0.0
2017-Dec-01 10:56N 30°12' W 093°19'0 0.0
2017-Dec-01 10:29N 30°12' W 093°19'0 0.0
2017-Dec-01 09:59N 30°12' W 093°19'0 0.0
2017-Dec-01 09:29N 30°12' W 093°19'0 0.0
2017-Dec-01 08:59N 30°12' W 093°19'0 0.0
2017-Dec-01 08:29N 30°12' W 093°19'0 0.0
2017-Dec-01 07:59N 30°12' W 093°19'0 0.0
2017-Dec-01 07:29N 30°12' W 093°19'0 0.0
2017-Dec-01 06:59N 30°12' W 093°19'0 0.0
2017-Dec-01 06:29N 30°12' W 093°19'0 0.0
2017-Dec-01 05:59N 30°12' W 093°19'0 0.0
2017-Dec-01 05:29N 30°12' W 093°19'0 0.0
2017-Dec-01 04:59N 30°12' W 093°19'0 0.0
2017-Dec-01 04:29N 30°12' W 093°19'0 0.0
2017-Dec-01 03:59N 30°12' W 093°19'0 0.0
2017-Dec-01 03:29N 30°12' W 093°19'0 0.0
2017-Dec-01 02:59N 30°12' W 093°19'0 0.0
2017-Dec-01 02:30N 30°12' W 093°19'0 0.0
2017-Dec-01 02:00N 30°12' W 093°19'0 0.0
2017-Dec-01 01:30N 30°12' W 093°19'0 0.0
2017-Dec-01 01:00N 30°12' W 093°19'0 0.0
2017-Dec-01 00:30N 30°12' W 093°19'0 0.1
2017-Dec-01 00:00N 30°12' W 093°19'0 0.0
2017-Nov-30 23:30N 30°12' W 093°19'1 1.5
2017-Nov-30 23:00N 30°13' W 093°19'1 2.6
2017-Nov-30 22:30N 30°12' W 093°18'2 3.4
2017-Nov-30 22:00N 30°11' W 093°19'3 6.1
2017-Nov-30 21:30N 30°08' W 093°20'3 6.0
2017-Nov-30 21:00N 30°05' W 093°20'2 3.9
2017-Nov-30 20:30N 30°04' W 093°22'3 5.6
2017-Nov-30 20:00N 30°04' W 093°25'3 5.8
2017-Nov-30 19:30N 30°04' W 093°28'3 5.8
2017-Nov-30 19:00N 30°04' W 093°32'3 5.2
2017-Nov-30 18:30N 30°04' W 093°35'3 5.5
2017-Nov-30 17:58N 30°04' W 093°38'  

Dump ship's entire track history